createdAt,value
2022-11-08T00:01:47.640Z,8.00
2022-11-08T00:04:20.606Z,7.90
2022-11-08T00:07:09.599Z,7.90
2022-11-08T00:09:58.740Z,7.80
2022-11-08T00:12:47.862Z,7.80
2022-11-08T00:15:19.428Z,7.70
2022-11-08T00:17:50.576Z,7.60
2022-11-08T00:20:21.896Z,7.60
2022-11-08T00:22:53.007Z,7.60
2022-11-08T00:25:22.889Z,7.60
2022-11-08T00:27:53.885Z,7.60
2022-11-08T00:30:25.111Z,7.70
2022-11-08T00:32:56.257Z,7.70
2022-11-08T00:35:26.242Z,7.60
2022-11-08T00:37:57.163Z,7.50
2022-11-08T00:40:27.291Z,7.50
2022-11-08T00:42:58.265Z,7.60
2022-11-08T00:45:28.129Z,7.50
2022-11-08T00:47:59.093Z,7.50
2022-11-08T00:50:30.444Z,7.50
2022-11-08T00:53:01.642Z,7.40
2022-11-08T00:55:32.850Z,7.40
2022-11-08T00:58:04.179Z,7.40
2022-11-08T01:00:35.572Z,7.50
2022-11-08T01:03:22.047Z,7.50
2022-11-08T01:05:55.569Z,7.60
2022-11-08T01:08:26.914Z,7.70
2022-11-08T01:10:58.212Z,7.70
2022-11-08T01:13:29.466Z,7.80
2022-11-08T01:16:02.225Z,7.80
2022-11-08T01:18:33.433Z,7.80
2022-11-08T01:21:06.087Z,7.70
2022-11-08T01:23:37.278Z,7.70
2022-11-08T01:26:12.067Z,7.60
2022-11-08T01:28:43.603Z,7.60
2022-11-08T01:31:16.125Z,7.50
2022-11-08T01:33:51.379Z,7.40
2022-11-08T01:36:22.507Z,7.30
2022-11-08T01:38:54.374Z,7.20
2022-11-08T01:41:27.783Z,7.20
2022-11-08T01:44:00.528Z,7.10
2022-11-08T01:46:36.911Z,7.10
2022-11-08T01:49:18.886Z,7.00
2022-11-08T01:51:53.363Z,7.00
2022-11-08T01:54:28.277Z,6.90
2022-11-08T01:57:02.009Z,6.80
2022-11-08T01:59:35.322Z,6.60
2022-11-08T02:02:07.338Z,6.60
2022-11-08T02:04:41.339Z,6.50
2022-11-08T02:07:14.949Z,6.40
2022-11-08T02:09:48.055Z,6.30
2022-11-08T02:12:22.831Z,6.30
2022-11-08T02:14:54.359Z,6.20
2022-11-08T02:17:25.609Z,6.10
2022-11-08T02:19:56.872Z,6.10
2022-11-08T02:22:31.720Z,6.00
2022-11-08T02:25:03.400Z,6.00
2022-11-08T02:27:34.742Z,5.90
2022-11-08T02:30:08.307Z,5.90
2022-11-08T02:32:40.923Z,5.90
2022-11-08T02:35:15.259Z,5.90
2022-11-08T02:37:47.806Z,5.80
2022-11-08T02:40:19.091Z,5.80
2022-11-08T02:42:50.518Z,5.70
2022-11-08T02:45:22.070Z,5.70
2022-11-08T02:47:53.398Z,5.70
2022-11-08T02:50:24.537Z,5.70
2022-11-08T02:52:54.591Z,5.70
2022-11-08T02:55:25.629Z,5.80
2022-11-08T02:57:57.763Z,5.90
2022-11-08T03:00:29.932Z,6.10
2022-11-08T03:03:01.193Z,6.10
2022-11-08T03:05:32.554Z,6.00
2022-11-08T03:08:03.769Z,6.00
2022-11-08T03:10:34.954Z,6.00
2022-11-08T03:13:07.301Z,6.10
2022-11-08T03:15:38.490Z,6.10
2022-11-08T03:18:08.501Z,6.10
2022-11-08T03:20:39.604Z,6.10
2022-11-08T03:23:10.880Z,6.10
2022-11-08T03:25:43.255Z,6.10
2022-11-08T03:28:15.654Z,6.10
2022-11-08T03:30:47.547Z,6.00
2022-11-08T03:33:18.724Z,5.90
2022-11-08T03:35:50.392Z,5.80
2022-11-08T03:38:21.648Z,5.80
2022-11-08T03:40:53.436Z,5.80
2022-11-08T03:43:24.628Z,5.70
2022-11-08T03:45:55.901Z,5.70
2022-11-08T03:48:27.341Z,5.60
2022-11-08T03:50:58.512Z,5.60
2022-11-08T03:53:29.741Z,5.70
2022-11-08T03:56:00.206Z,5.70
2022-11-08T03:58:31.282Z,5.70
2022-11-08T04:01:06.454Z,5.70
2022-11-08T04:03:37.827Z,5.70
2022-11-08T04:06:09.878Z,5.60
2022-11-08T04:08:41.132Z,5.60
2022-11-08T04:11:30.304Z,5.50
2022-11-08T04:14:19.452Z,5.50
2022-11-08T04:16:50.745Z,5.40
2022-11-08T04:19:40.147Z,5.30
2022-11-08T04:22:13.085Z,5.30
2022-11-08T04:24:44.204Z,5.40
2022-11-08T04:27:14.160Z,5.50
2022-11-08T04:29:45.374Z,5.50
2022-11-08T04:32:16.813Z,5.60
2022-11-08T04:34:47.937Z,5.60
2022-11-08T04:37:19.546Z,5.60
2022-11-08T04:39:50.882Z,5.60
2022-11-08T04:42:22.251Z,5.50
2022-11-08T04:44:53.436Z,5.40
2022-11-08T04:47:24.650Z,5.40
2022-11-08T04:49:56.009Z,5.40
2022-11-08T04:52:27.266Z,5.40
2022-11-08T04:54:58.383Z,5.40
2022-11-08T04:57:29.751Z,5.30
2022-11-08T05:00:00.897Z,5.30
2022-11-08T05:02:32.196Z,5.20
2022-11-08T05:05:03.669Z,5.20
2022-11-08T05:07:34.867Z,5.20
2022-11-08T05:10:08.188Z,5.10
2022-11-08T05:12:39.358Z,5.10
2022-11-08T05:15:12.503Z,5.00
2022-11-08T05:17:44.588Z,4.90
2022-11-08T05:20:33.844Z,4.90
2022-11-08T05:23:23.473Z,4.80
2022-11-08T05:25:56.422Z,4.80
2022-11-08T05:28:27.702Z,4.80
2022-11-08T05:30:59.227Z,4.80
2022-11-08T05:33:30.815Z,4.70
2022-11-08T05:36:06.097Z,4.70
2022-11-08T05:38:37.355Z,4.70
2022-11-08T05:41:11.236Z,4.60
2022-11-08T05:43:43.134Z,4.60
2022-11-08T05:46:14.572Z,4.60
2022-11-08T05:48:47.317Z,4.50
2022-11-08T05:51:20.163Z,4.50
2022-11-08T05:53:51.451Z,4.50
2022-11-08T05:56:22.525Z,4.50
2022-11-08T05:58:52.407Z,4.50
2022-11-08T06:01:23.448Z,4.50
2022-11-08T06:03:54.783Z,4.50
2022-11-08T06:06:26.132Z,4.50
2022-11-08T06:08:57.279Z,4.50
2022-11-08T06:11:28.546Z,4.60
2022-11-08T06:13:59.738Z,4.70
2022-11-08T06:16:31.028Z,4.80
2022-11-08T06:19:02.122Z,5.00
2022-11-08T06:21:33.429Z,5.30
2022-11-08T06:24:05.019Z,5.40
2022-11-08T06:26:36.135Z,5.30
2022-11-08T06:29:07.595Z,5.30
2022-11-08T06:31:42.905Z,5.20
2022-11-08T06:34:12.579Z,5.20
2022-11-08T06:36:43.831Z,5.20
2022-11-08T06:39:15.086Z,5.40
2022-11-08T06:41:46.334Z,5.40
2022-11-08T06:44:17.723Z,5.50
2022-11-08T06:46:48.934Z,5.50
2022-11-08T06:49:19.032Z,5.60
2022-11-08T06:51:50.430Z,5.60
2022-11-08T06:54:25.804Z,5.60
2022-11-08T06:56:57.839Z,5.60
2022-11-08T06:59:29.713Z,5.60
2022-11-08T07:02:00.969Z,5.60
2022-11-08T07:04:32.158Z,5.50
2022-11-08T07:07:02.039Z,5.50
2022-11-08T07:09:33.343Z,5.50
2022-11-08T07:12:04.925Z,5.50
2022-11-08T07:14:36.491Z,5.50
2022-11-08T07:17:07.697Z,5.50
2022-11-08T07:19:39.020Z,5.50
2022-11-08T07:22:10.323Z,5.50
2022-11-08T07:24:41.450Z,5.50
2022-11-08T07:27:11.326Z,5.50
2022-11-08T07:29:42.388Z,5.50
2022-11-08T07:32:13.483Z,5.60
2022-11-08T07:34:43.486Z,5.60
2022-11-08T07:37:14.441Z,5.60
2022-11-08T07:39:44.379Z,5.70
2022-11-08T07:42:15.391Z,5.70
2022-11-08T07:44:46.631Z,5.80
2022-11-08T07:47:17.880Z,5.90
2022-11-08T07:49:49.461Z,6.00
2022-11-08T07:52:20.753Z,6.20
2022-11-08T07:54:51.969Z,6.30
2022-11-08T07:57:23.891Z,6.50
2022-11-08T07:59:55.143Z,6.70
2022-11-08T08:02:26.357Z,6.90
2022-11-08T08:04:57.489Z,7.20
2022-11-08T08:07:28.798Z,7.50
2022-11-08T08:09:59.977Z,7.70
2022-11-08T08:12:33.991Z,8.00
2022-11-08T08:15:05.889Z,8.30
2022-11-08T08:17:37.146Z,8.60
2022-11-08T08:20:11.316Z,8.80
2022-11-08T08:22:46.057Z,9.00
2022-11-08T08:25:18.022Z,9.20
2022-11-08T08:27:50.188Z,9.40
2022-11-08T08:30:22.404Z,9.50
2022-11-08T08:33:22.029Z,9.60
2022-11-08T08:35:28.050Z,9.70
2022-11-08T08:38:02.696Z,9.70
2022-11-08T08:40:34.781Z,9.80
2022-11-08T08:43:06.597Z,9.90
2022-11-08T08:45:38.747Z,10.00
2022-11-08T08:48:09.920Z,10.00
2022-11-08T08:50:41.392Z,10.00
2022-11-08T08:53:13.002Z,10.00
2022-11-08T08:55:44.307Z,10.10
2022-11-08T08:58:15.859Z,10.10
2022-11-08T09:03:20.470Z,10.10
2022-11-08T09:05:52.119Z,10.20
2022-11-08T09:08:21.953Z,10.40
2022-11-08T09:10:55.558Z,10.40
2022-11-08T09:13:28.273Z,10.50
2022-11-08T09:16:01.717Z,10.50
2022-11-08T09:18:33.381Z,10.40
2022-11-08T09:21:04.675Z,10.40
2022-11-08T09:23:35.863Z,10.40
2022-11-08T09:26:08.001Z,10.40
2022-11-08T09:28:39.630Z,10.40
2022-11-08T09:31:13.600Z,10.30
2022-11-08T09:33:44.926Z,10.30
2022-11-08T09:36:16.104Z,10.40
2022-11-08T09:38:47.155Z,10.50
2022-11-08T09:41:27.622Z,10.60
2022-11-08T09:44:10.445Z,10.70
2022-11-08T09:46:45.167Z,10.80
2022-11-08T09:49:19.903Z,10.90
2022-11-08T09:51:51.223Z,11.00
2022-11-08T09:54:25.870Z,11.00
2022-11-08T09:57:05.401Z,11.10
2022-11-08T09:59:41.855Z,11.30
2022-11-08T10:02:18.948Z,11.50
2022-11-08T10:04:54.218Z,11.70
2022-11-08T10:07:31.806Z,11.80
2022-11-08T10:10:27.414Z,12.00
2022-11-08T10:13:04.364Z,12.10
2022-11-08T10:15:41.972Z,12.20
2022-11-08T10:18:23.747Z,12.30
2022-11-08T10:21:02.798Z,12.50
2022-11-08T10:23:41.183Z,12.60
2022-11-08T10:26:19.658Z,12.70
2022-11-08T10:28:54.948Z,12.90
2022-11-08T10:31:29.358Z,13.10
2022-11-08T10:34:02.652Z,13.20
2022-11-08T10:36:37.257Z,13.30
2022-11-08T10:39:14.160Z,13.20
2022-11-08T10:41:49.555Z,13.30
2022-11-08T10:44:24.234Z,13.30
2022-11-08T10:46:59.981Z,13.50
2022-11-08T10:49:33.658Z,13.80
2022-11-08T10:52:13.044Z,14.00
2022-11-08T10:54:47.509Z,14.20
2022-11-08T10:57:21.246Z,14.20
2022-11-08T10:59:53.121Z,14.40
2022-11-08T11:02:28.575Z,14.50
2022-11-08T11:05:22.948Z,14.60
2022-11-08T11:08:07.850Z,14.60
2022-11-08T11:10:40.816Z,14.80
2022-11-08T11:13:15.794Z,14.80
2022-11-08T11:15:51.093Z,14.90
2022-11-08T11:18:29.240Z,15.00
2022-11-08T11:21:13.152Z,15.20
2022-11-08T11:23:47.753Z,15.30
2022-11-08T11:26:23.344Z,15.40
2022-11-08T11:29:19.962Z,15.40
2022-11-08T11:31:53.375Z,15.30
2022-11-08T11:34:45.516Z,15.20
2022-11-08T11:37:32.339Z,15.00
2022-11-08T11:40:16.985Z,14.90
2022-11-08T11:42:54.026Z,14.90
2022-11-08T11:45:29.061Z,14.80
2022-11-08T11:48:03.439Z,14.70
2022-11-08T11:50:37.351Z,14.70
2022-11-08T11:53:13.282Z,14.80
2022-11-08T11:55:57.966Z,14.90
2022-11-08T11:58:46.781Z,15.00
2022-11-08T12:01:21.549Z,15.10
2022-11-08T12:04:01.966Z,15.00
2022-11-08T12:06:40.747Z,15.00
2022-11-08T12:09:25.097Z,15.10
2022-11-08T12:12:03.709Z,15.10
2022-11-08T12:14:49.744Z,15.20
2022-11-08T12:17:38.186Z,15.30
2022-11-08T12:20:35.623Z,15.60
2022-11-08T12:26:15.985Z,15.90
2022-11-08T12:29:14.778Z,16.10
2022-11-08T12:31:49.972Z,16.20
2022-11-08T12:34:24.387Z,16.20
2022-11-08T12:37:26.264Z,16.30
2022-11-08T12:40:01.040Z,16.30
2022-11-08T12:42:40.704Z,16.10
2022-11-08T12:45:47.214Z,16.00
2022-11-08T12:48:23.820Z,15.80
2022-11-08T12:51:01.688Z,15.50
2022-11-08T12:53:48.490Z,15.40
2022-11-08T12:56:23.163Z,15.20
2022-11-08T12:58:56.277Z,15.20
2022-11-08T13:01:27.678Z,15.10
2022-11-08T13:04:10.153Z,15.10
2022-11-08T13:06:45.091Z,15.10
2022-11-08T13:09:22.898Z,15.10
2022-11-08T13:12:00.335Z,15.20
2022-11-08T13:14:38.533Z,15.30
2022-11-08T13:17:22.944Z,15.50
2022-11-08T13:20:08.359Z,15.40
2022-11-08T13:22:59.556Z,15.30
2022-11-08T13:25:41.432Z,15.30
2022-11-08T13:28:37.599Z,15.30
2022-11-08T13:31:45.024Z,15.30
2022-11-08T13:34:23.383Z,15.30
2022-11-08T13:37:18.778Z,15.30
2022-11-08T13:39:56.414Z,15.20
2022-11-08T13:42:34.531Z,15.20
2022-11-08T13:45:47.204Z,15.20
2022-11-08T13:48:37.929Z,15.10
2022-11-08T13:51:30.439Z,15.00
2022-11-08T13:54:03.273Z,15.00
2022-11-08T13:56:54.074Z,14.90
2022-11-08T13:59:56.792Z,14.80
2022-11-08T14:02:43.878Z,14.80
2022-11-08T14:05:29.619Z,14.80
2022-11-08T14:08:23.516Z,14.80
2022-11-08T14:11:25.716Z,14.70
2022-11-08T14:14:13.304Z,14.60
2022-11-08T14:16:52.459Z,14.70
2022-11-08T14:19:26.264Z,14.60
2022-11-08T14:21:59.804Z,14.50
2022-11-08T14:24:34.081Z,14.50
2022-11-08T14:27:05.742Z,14.50
2022-11-08T14:29:38.270Z,14.40
2022-11-08T14:32:18.944Z,14.40
2022-11-08T14:34:50.180Z,14.30
2022-11-08T14:37:25.507Z,14.30
2022-11-08T14:39:56.779Z,14.20
2022-11-08T14:42:28.656Z,14.10
2022-11-08T14:44:59.948Z,14.00
2022-11-08T14:47:32.692Z,13.90
2022-11-08T14:50:03.906Z,13.80
2022-11-08T14:52:35.133Z,13.70
2022-11-08T14:55:08.824Z,13.60
2022-11-08T14:57:41.288Z,13.50
2022-11-08T15:00:21.510Z,13.40
2022-11-08T15:02:56.347Z,13.30
2022-11-08T15:05:35.204Z,13.20
2022-11-08T15:08:34.466Z,13.10
2022-11-08T15:11:12.404Z,13.00
2022-11-08T15:13:46.788Z,12.90
2022-11-08T15:16:18.783Z,12.80
2022-11-08T15:18:50.520Z,12.70
2022-11-08T15:21:30.113Z,12.70
2022-11-08T15:24:13.057Z,12.60
2022-11-08T15:27:03.059Z,12.50
2022-11-08T15:29:51.230Z,12.50
2022-11-08T15:32:23.617Z,12.30
2022-11-08T15:34:58.526Z,12.30
2022-11-08T15:37:35.526Z,12.20
2022-11-08T15:40:10.359Z,12.20
2022-11-08T15:42:44.833Z,12.10
2022-11-08T15:45:25.971Z,11.90
2022-11-08T15:48:01.959Z,11.80
2022-11-08T15:50:33.729Z,11.60
2022-11-08T15:53:06.179Z,11.50
2022-11-08T15:55:40.642Z,11.30
2022-11-08T15:58:16.800Z,11.10
2022-11-08T16:00:49.895Z,11.00
2022-11-08T16:03:21.135Z,10.90
2022-11-08T16:05:52.783Z,10.80
2022-11-08T16:08:24.398Z,10.70
2022-11-08T16:10:58.214Z,10.60
2022-11-08T16:13:31.784Z,10.60
2022-11-08T16:16:04.744Z,10.50
2022-11-08T16:18:35.838Z,10.40
2022-11-08T16:21:07.782Z,10.30
2022-11-08T16:23:40.231Z,10.20
2022-11-08T16:26:16.592Z,10.10
2022-11-08T16:28:48.036Z,10.00
2022-11-08T16:31:20.042Z,10.00
2022-11-08T16:34:07.967Z,10.00
2022-11-08T16:36:39.244Z,10.00
2022-11-08T16:39:15.496Z,9.90
2022-11-08T16:41:47.006Z,9.90
2022-11-08T16:44:18.324Z,9.80
2022-11-08T16:46:49.540Z,9.70
2022-11-08T16:49:26.665Z,9.70
2022-11-08T16:51:57.716Z,9.60
2022-11-08T16:54:28.707Z,9.50
2022-11-08T16:57:28.510Z,9.50
2022-11-08T16:59:33.437Z,9.50
2022-11-08T17:02:04.735Z,9.50
2022-11-08T17:04:36.117Z,9.50
2022-11-08T17:07:13.007Z,9.50
2022-11-08T17:09:39.989Z,9.50
2022-11-08T17:12:11.389Z,9.60
2022-11-08T17:14:42.694Z,9.60
2022-11-08T17:17:14.828Z,9.70
2022-11-08T17:19:49.046Z,9.70
2022-11-08T17:22:24.571Z,9.60
2022-11-08T17:24:56.559Z,9.50
2022-11-08T17:27:26.474Z,9.50
2022-11-08T17:29:57.466Z,9.40
2022-11-08T17:32:28.551Z,9.40
2022-11-08T17:34:58.409Z,9.30
2022-11-08T17:37:29.624Z,9.30
2022-11-08T17:40:00.962Z,9.20
2022-11-08T17:42:35.762Z,9.20
2022-11-08T17:45:05.728Z,9.20
2022-11-08T17:47:37.588Z,9.10
2022-11-08T17:50:11.144Z,9.10
2022-11-08T17:52:42.287Z,9.10
2022-11-08T17:55:13.411Z,9.10
2022-11-08T17:57:44.594Z,9.10
2022-11-08T18:00:17.803Z,9.10
2022-11-08T18:02:48.891Z,9.10
2022-11-08T18:05:18.844Z,9.00
2022-11-08T18:07:50.256Z,9.10
2022-11-08T18:10:21.322Z,9.10
2022-11-08T18:12:51.186Z,9.10
2022-11-08T18:15:22.261Z,9.20
2022-11-08T18:17:53.394Z,9.30
2022-11-08T18:20:24.489Z,9.40
2022-11-08T18:22:54.456Z,9.60
2022-11-08T18:25:25.704Z,9.60
2022-11-08T18:27:57.174Z,9.60
2022-11-08T18:30:28.549Z,9.60
2022-11-08T18:32:59.734Z,9.60
2022-11-08T18:35:30.852Z,9.50
2022-11-08T18:38:00.923Z,9.50
2022-11-08T18:40:32.532Z,9.40
2022-11-08T18:43:04.107Z,9.30
2022-11-08T18:45:35.334Z,9.30
2022-11-08T18:48:07.007Z,9.30
2022-11-08T18:50:38.556Z,9.30
2022-11-08T18:53:09.808Z,9.40
2022-11-08T18:55:41.072Z,9.40
2022-11-08T18:58:12.297Z,9.50
2022-11-08T19:00:43.563Z,9.40
2022-11-08T19:03:14.805Z,9.30
2022-11-08T19:05:47.640Z,9.30
2022-11-08T19:08:20.324Z,9.20
2022-11-08T19:11:02.249Z,9.10
2022-11-08T19:13:36.195Z,9.00
2022-11-08T19:16:10.031Z,9.00
2022-11-08T19:18:42.144Z,8.90
2022-11-08T19:21:16.131Z,8.80
2022-11-08T19:23:48.009Z,8.70
2022-11-08T19:26:21.452Z,8.60
2022-11-08T19:28:55.225Z,8.50
2022-11-08T19:31:27.180Z,8.40
2022-11-08T19:33:58.428Z,8.40
2022-11-08T19:36:32.300Z,8.30
2022-11-08T19:39:03.647Z,8.30
2022-11-08T19:41:34.763Z,8.20
2022-11-08T19:44:05.163Z,8.20
2022-11-08T19:46:38.896Z,8.10
2022-11-08T19:49:10.628Z,8.10
2022-11-08T19:51:41.752Z,8.10
2022-11-08T19:54:13.036Z,8.10
2022-11-08T19:57:04.007Z,8.10
2022-11-08T19:59:17.532Z,8.20
2022-11-08T20:01:48.911Z,8.10
2022-11-08T20:04:20.295Z,8.10
2022-11-08T20:06:51.939Z,8.00
2022-11-08T20:09:28.954Z,8.10
2022-11-08T20:11:57.233Z,8.00
2022-11-08T20:14:28.359Z,7.90
2022-11-08T20:16:58.511Z,7.80
2022-11-08T20:19:29.655Z,7.70
2022-11-08T20:22:00.783Z,7.70
2022-11-08T20:24:30.825Z,7.60
2022-11-08T20:27:01.864Z,7.60
2022-11-08T20:29:33.111Z,7.60
2022-11-08T20:32:04.328Z,7.60
2022-11-08T20:34:38.579Z,7.60
2022-11-08T20:37:08.772Z,7.60
2022-11-08T20:39:40.180Z,7.70
2022-11-08T20:42:11.354Z,7.70
2022-11-08T20:44:42.556Z,7.80
2022-11-08T20:47:14.119Z,7.90
2022-11-08T20:49:45.463Z,8.00
2022-11-08T20:52:17.008Z,8.20
2022-11-08T20:54:48.281Z,8.30
2022-11-08T20:57:19.629Z,8.40
2022-11-08T20:59:50.916Z,8.40
2022-11-08T21:02:22.766Z,8.30
2022-11-08T21:04:53.723Z,8.30
2022-11-08T21:10:13.558Z,8.10
2022-11-08T21:12:28.981Z,8.10
2022-11-08T21:15:00.541Z,8.00
2022-11-08T21:17:31.970Z,8.00
2022-11-08T21:20:04.213Z,7.90
2022-11-08T21:22:35.274Z,7.80
2022-11-08T21:25:05.719Z,7.80
2022-11-08T21:27:37.057Z,7.80
2022-11-08T21:30:10.777Z,7.80
2022-11-08T21:32:42.385Z,7.70
2022-11-08T21:35:13.774Z,7.70
2022-11-08T21:37:45.051Z,7.60
2022-11-08T21:40:16.616Z,7.60
2022-11-08T21:42:49.040Z,7.50
2022-11-08T21:45:20.562Z,7.50
2022-11-08T21:51:03.783Z,7.40
2022-11-08T21:53:37.878Z,7.50
2022-11-08T21:56:08.593Z,7.50
2022-11-08T21:58:39.796Z,7.60
2022-11-08T22:01:11.610Z,7.50
2022-11-08T22:03:43.439Z,7.50
2022-11-08T22:06:15.058Z,7.40
2022-11-08T22:08:46.390Z,7.40
2022-11-08T22:11:17.730Z,7.50
2022-11-08T22:13:49.129Z,7.50
2022-11-08T22:16:20.465Z,7.50
2022-11-08T22:19:04.716Z,7.50
2022-11-08T22:21:40.817Z,7.50
2022-11-08T22:24:14.921Z,7.60
2022-11-08T22:26:47.284Z,7.70
2022-11-08T22:29:19.779Z,7.80
2022-11-08T22:31:52.200Z,7.90
2022-11-08T22:34:23.841Z,7.90
2022-11-08T22:36:55.136Z,7.80
2022-11-08T22:39:26.612Z,7.70
2022-11-08T22:41:57.957Z,7.60
2022-11-08T22:44:29.349Z,7.50
2022-11-08T22:47:00.895Z,7.50
2022-11-08T22:49:32.335Z,7.50
2022-11-08T22:52:03.721Z,7.50
2022-11-08T22:54:35.524Z,7.50
2022-11-08T22:57:07.863Z,7.50
2022-11-08T22:59:39.058Z,7.50
2022-11-08T23:02:10.552Z,7.50
2022-11-08T23:04:41.884Z,7.60
2022-11-08T23:07:13.060Z,7.60
2022-11-08T23:09:44.246Z,7.70
2022-11-08T23:12:33.423Z,7.70
2022-11-08T23:15:22.954Z,7.70
2022-11-08T23:17:54.211Z,7.70
2022-11-08T23:20:43.913Z,7.90
2022-11-08T23:23:32.831Z,7.90
2022-11-08T23:26:04.575Z,8.10
2022-11-08T23:28:53.853Z,8.40
2022-11-08T23:31:37.816Z,8.30
2022-11-08T23:34:09.044Z,8.30
2022-11-08T23:36:40.223Z,8.10
2022-11-08T23:39:11.482Z,7.90
2022-11-08T23:42:00.784Z,7.80
2022-11-08T23:44:32.026Z,7.60
2022-11-08T23:47:03.419Z,7.50
2022-11-08T23:49:34.651Z,7.50
2022-11-08T23:52:06.335Z,7.40
2022-11-08T23:54:37.432Z,7.30
2022-11-08T23:57:08.622Z,7.30
2022-11-08T23:59:39.737Z,7.30
